sensor_id;sensor_type;location;lat;lon;timestamp;P1;durP1;ratioP1;P2;durP2;ratioP2
18501;SDS011;68437;52.236;5.710;2023-06-14T00:02:22;9.65;;;4.07;;
18501;SDS011;68437;52.236;5.710;2023-06-14T00:04:48;10.35;;;3.58;;
18501;SDS011;68437;52.236;5.710;2023-06-14T00:07:20;7.20;;;3.65;;
18501;SDS011;68437;52.236;5.710;2023-06-14T00:09:59;7.40;;;4.22;;
18501;SDS011;68437;52.236;5.710;2023-06-14T00:12:26;12.63;;;4.03;;
18501;SDS011;68437;52.236;5.710;2023-06-14T00:14:52;8.80;;;3.80;;
18501;SDS011;68437;52.236;5.710;2023-06-14T00:17:19;9.27;;;3.85;;
18501;SDS011;68437;52.236;5.710;2023-06-14T00:19:46;10.05;;;4.10;;
18501;SDS011;68437;52.236;5.710;2023-06-14T00:22:13;13.23;;;3.80;;
18501;SDS011;68437;52.236;5.710;2023-06-14T00:24:41;11.32;;;4.00;;
18501;SDS011;68437;52.236;5.710;2023-06-14T00:27:08;11.27;;;3.97;;
18501;SDS011;68437;52.236;5.710;2023-06-14T00:29:35;6.50;;;3.83;;
18501;SDS011;68437;52.236;5.710;2023-06-14T00:32:02;8.70;;;3.75;;
18501;SDS011;68437;52.236;5.710;2023-06-14T00:34:29;7.75;;;3.78;;
18501;SDS011;68437;52.236;5.710;2023-06-14T00:36:56;7.55;;;4.13;;
18501;SDS011;68437;52.236;5.710;2023-06-14T00:39:23;10.02;;;3.70;;
18501;SDS011;68437;52.236;5.710;2023-06-14T00:41:51;9.93;;;3.92;;
18501;SDS011;68437;52.236;5.710;2023-06-14T00:44:18;10.10;;;3.90;;
18501;SDS011;68437;52.236;5.710;2023-06-14T00:46:45;9.90;;;3.40;;
18501;SDS011;68437;52.236;5.710;2023-06-14T00:49:12;11.45;;;4.20;;
18501;SDS011;68437;52.236;5.710;2023-06-14T00:51:40;6.75;;;3.45;;
18501;SDS011;68437;52.236;5.710;2023-06-14T00:54:07;10.45;;;3.80;;
18501;SDS011;68437;52.236;5.710;2023-06-14T00:56:35;9.93;;;4.00;;
18501;SDS011;68437;52.236;5.710;2023-06-14T00:59:03;7.78;;;3.60;;
18501;SDS011;68437;52.236;5.710;2023-06-14T01:01:30;9.20;;;3.90;;
18501;SDS011;68437;52.236;5.710;2023-06-14T01:03:57;6.88;;;3.50;;
18501;SDS011;68437;52.236;5.710;2023-06-14T01:06:28;11.10;;;4.00;;
18501;SDS011;68437;52.236;5.710;2023-06-14T01:09:09;11.82;;;4.18;;
18501;SDS011;68437;52.236;5.710;2023-06-14T01:11:44;8.88;;;3.60;;
18501;SDS011;68437;52.236;5.710;2023-06-14T01:14:18;6.30;;;3.15;;
18501;SDS011;68437;52.236;5.710;2023-06-14T01:16:47;17.73;;;4.18;;
18501;SDS011;68437;52.236;5.710;2023-06-14T01:19:18;7.72;;;3.53;;
18501;SDS011;68437;52.236;5.710;2023-06-14T01:21:47;8.57;;;3.72;;
18501;SDS011;68437;52.236;5.710;2023-06-14T01:24:17;10.00;;;3.67;;
18501;SDS011;68437;52.236;5.710;2023-06-14T01:26:48;8.77;;;3.55;;
18501;SDS011;68437;52.236;5.710;2023-06-14T01:29:20;7.25;;;3.95;;
18501;SDS011;68437;52.236;5.710;2023-06-14T01:31:48;9.90;;;3.80;;
18501;SDS011;68437;52.236;5.710;2023-06-14T01:34:16;8.07;;;3.78;;
18501;SDS011;68437;52.236;5.710;2023-06-14T01:36:43;7.25;;;3.38;;
18501;SDS011;68437;52.236;5.710;2023-06-14T01:39:11;12.45;;;3.80;;
18501;SDS011;68437;52.236;5.710;2023-06-14T01:41:40;10.82;;;4.10;;
18501;SDS011;68437;52.236;5.710;2023-06-14T01:44:09;6.90;;;3.55;;
18501;SDS011;68437;52.236;5.710;2023-06-14T01:46:38;14.32;;;3.90;;
18501;SDS011;68437;52.236;5.710;2023-06-14T01:49:06;9.80;;;3.70;;
18501;SDS011;68437;52.236;5.710;2023-06-14T01:51:33;7.47;;;3.67;;
18501;SDS011;68437;52.236;5.710;2023-06-14T01:54:00;8.73;;;3.63;;
18501;SDS011;68437;52.236;5.710;2023-06-14T01:56:27;7.70;;;3.42;;
18501;SDS011;68437;52.236;5.710;2023-06-14T01:58:56;10.32;;;3.70;;
18501;SDS011;68437;52.236;5.710;2023-06-14T02:01:23;8.98;;;3.55;;
18501;SDS011;68437;52.236;5.710;2023-06-14T02:03:50;5.63;;;3.40;;
18501;SDS011;68437;52.236;5.710;2023-06-14T02:06:16;8.40;;;3.60;;
18501;SDS011;68437;52.236;5.710;2023-06-14T02:08:43;9.70;;;3.88;;
18501;SDS011;68437;52.236;5.710;2023-06-14T02:11:10;9.88;;;3.85;;
18501;SDS011;68437;52.236;5.710;2023-06-14T02:13:37;9.55;;;3.88;;
18501;SDS011;68437;52.236;5.710;2023-06-14T02:16:05;8.07;;;3.67;;
18501;SDS011;68437;52.236;5.710;2023-06-14T02:18:32;10.13;;;3.70;;
18501;SDS011;68437;52.236;5.710;2023-06-14T02:20:59;8.63;;;3.95;;
18501;SDS011;68437;52.236;5.710;2023-06-14T02:23:25;9.25;;;3.60;;
18501;SDS011;68437;52.236;5.710;2023-06-14T02:25:52;10.23;;;3.90;;
18501;SDS011;68437;52.236;5.710;2023-06-14T02:28:19;13.80;;;3.85;;
18501;SDS011;68437;52.236;5.710;2023-06-14T02:30:46;7.85;;;3.92;;
18501;SDS011;68437;52.236;5.710;2023-06-14T02:33:14;8.48;;;3.90;;
18501;SDS011;68437;52.236;5.710;2023-06-14T02:35:42;6.53;;;3.90;;
18501;SDS011;68437;52.236;5.710;2023-06-14T02:38:09;14.35;;;3.97;;
18501;SDS011;68437;52.236;5.710;2023-06-14T02:40:36;10.18;;;3.63;;
18501;SDS011;68437;52.236;5.710;2023-06-14T02:43:03;8.93;;;3.83;;
18501;SDS011;68437;52.236;5.710;2023-06-14T02:45:30;6.82;;;3.60;;
18501;SDS011;68437;52.236;5.710;2023-06-14T02:47:57;8.07;;;3.58;;
18501;SDS011;68437;52.236;5.710;2023-06-14T02:50:25;6.35;;;3.90;;
18501;SDS011;68437;52.236;5.710;2023-06-14T02:52:53;6.90;;;3.70;;
18501;SDS011;68437;52.236;5.710;2023-06-14T02:55:21;10.43;;;3.88;;
18501;SDS011;68437;52.236;5.710;2023-06-14T02:57:47;9.80;;;3.95;;
18501;SDS011;68437;52.236;5.710;2023-06-14T03:00:14;8.20;;;3.60;;
18501;SDS011;68437;52.236;5.710;2023-06-14T03:02:42;6.78;;;3.42;;
18501;SDS011;68437;52.236;5.710;2023-06-14T03:05:09;9.13;;;3.83;;
18501;SDS011;68437;52.236;5.710;2023-06-14T03:07:37;8.50;;;3.75;;
18501;SDS011;68437;52.236;5.710;2023-06-14T03:10:06;12.65;;;4.13;;
18501;SDS011;68437;52.236;5.710;2023-06-14T03:12:34;10.32;;;4.10;;
18501;SDS011;68437;52.236;5.710;2023-06-14T03:15:02;12.38;;;4.53;;
18501;SDS011;68437;52.236;5.710;2023-06-14T03:17:29;7.95;;;3.95;;
18501;SDS011;68437;52.236;5.710;2023-06-14T03:19:58;8.18;;;4.18;;
18501;SDS011;68437;52.236;5.710;2023-06-14T03:22:25;10.32;;;4.00;;
18501;SDS011;68437;52.236;5.710;2023-06-14T03:24:54;16.15;;;4.13;;
18501;SDS011;68437;52.236;5.710;2023-06-14T03:27:21;9.30;;;4.00;;
18501;SDS011;68437;52.236;5.710;2023-06-14T03:29:48;8.13;;;4.07;;
18501;SDS011;68437;52.236;5.710;2023-06-14T03:32:15;11.13;;;3.90;;
18501;SDS011;68437;52.236;5.710;2023-06-14T03:34:42;8.85;;;4.20;;
18501;SDS011;68437;52.236;5.710;2023-06-14T03:37:10;10.05;;;4.03;;
18501;SDS011;68437;52.236;5.710;2023-06-14T03:39:37;10.50;;;3.92;;
18501;SDS011;68437;52.236;5.710;2023-06-14T03:42:12;13.25;;;4.03;;
18501;SDS011;68437;52.236;5.710;2023-06-14T03:44:39;8.02;;;3.75;;
18501;SDS011;68437;52.236;5.710;2023-06-14T03:47:06;6.03;;;3.58;;
18501;SDS011;68437;52.236;5.710;2023-06-14T03:49:33;7.22;;;3.72;;
18501;SDS011;68437;52.236;5.710;2023-06-14T03:52:00;8.68;;;4.00;;
18501;SDS011;68437;52.236;5.710;2023-06-14T03:54:27;9.90;;;3.85;;
18501;SDS011;68437;52.236;5.710;2023-06-14T03:56:57;8.98;;;4.00;;
18501;SDS011;68437;52.236;5.710;2023-06-14T03:59:25;9.80;;;3.90;;
18501;SDS011;68437;52.236;5.710;2023-06-14T04:01:53;6.70;;;3.97;;
18501;SDS011;68437;52.236;5.710;2023-06-14T04:04:20;7.03;;;3.80;;
18501;SDS011;68437;52.236;5.710;2023-06-14T04:06:54;11.35;;;4.10;;
18501;SDS011;68437;52.236;5.710;2023-06-14T04:09:21;7.43;;;3.90;;
18501;SDS011;68437;52.236;5.710;2023-06-14T04:11:49;10.85;;;3.97;;
18501;SDS011;68437;52.236;5.710;2023-06-14T04:14:17;8.18;;;3.75;;
18501;SDS011;68437;52.236;5.710;2023-06-14T04:16:45;11.82;;;4.10;;
18501;SDS011;68437;52.236;5.710;2023-06-14T04:19:12;6.65;;;4.05;;
18501;SDS011;68437;52.236;5.710;2023-06-14T04:21:39;8.07;;;3.92;;
18501;SDS011;68437;52.236;5.710;2023-06-14T04:24:06;12.27;;;3.97;;
18501;SDS011;68437;52.236;5.710;2023-06-14T04:26:38;16.50;;;3.95;;
18501;SDS011;68437;52.236;5.710;2023-06-14T04:29:05;8.50;;;3.67;;
18501;SDS011;68437;52.236;5.710;2023-06-14T04:31:32;7.72;;;3.58;;
18501;SDS011;68437;52.236;5.710;2023-06-14T04:34:03;6.45;;;3.20;;
18501;SDS011;68437;52.236;5.710;2023-06-14T04:36:31;12.27;;;3.75;;
18501;SDS011;68437;52.236;5.710;2023-06-14T04:38:59;8.98;;;3.25;;
18501;SDS011;68437;52.236;5.710;2023-06-14T04:41:28;7.95;;;3.55;;
18501;SDS011;68437;52.236;5.710;2023-06-14T04:43:56;6.00;;;3.53;;
18501;SDS011;68437;52.236;5.710;2023-06-14T04:46:26;4.93;;;3.50;;
18501;SDS011;68437;52.236;5.710;2023-06-14T04:48:53;6.53;;;3.45;;
18501;SDS011;68437;52.236;5.710;2023-06-14T04:51:21;9.50;;;3.80;;
18501;SDS011;68437;52.236;5.710;2023-06-14T04:53:54;10.55;;;3.58;;
18501;SDS011;68437;52.236;5.710;2023-06-14T04:56:23;11.93;;;3.58;;
18501;SDS011;68437;52.236;5.710;2023-06-14T04:58:51;7.35;;;3.60;;
18501;SDS011;68437;52.236;5.710;2023-06-14T05:01:18;10.75;;;3.85;;
18501;SDS011;68437;52.236;5.710;2023-06-14T05:03:46;10.38;;;3.72;;
18501;SDS011;68437;52.236;5.710;2023-06-14T05:06:13;6.72;;;3.78;;
18501;SDS011;68437;52.236;5.710;2023-06-14T05:08:42;5.88;;;3.45;;
18501;SDS011;68437;52.236;5.710;2023-06-14T05:11:09;7.93;;;3.78;;
18501;SDS011;68437;52.236;5.710;2023-06-14T05:13:35;7.15;;;3.70;;
18501;SDS011;68437;52.236;5.710;2023-06-14T05:16:02;11.90;;;3.95;;
18501;SDS011;68437;52.236;5.710;2023-06-14T05:18:29;14.30;;;4.32;;
18501;SDS011;68437;52.236;5.710;2023-06-14T05:20:56;10.15;;;4.45;;
18501;SDS011;68437;52.236;5.710;2023-06-14T05:23:23;11.02;;;4.45;;
18501;SDS011;68437;52.236;5.710;2023-06-14T05:25:51;9.45;;;4.20;;
18501;SDS011;68437;52.236;5.710;2023-06-14T05:28:18;7.35;;;3.80;;
18501;SDS011;68437;52.236;5.710;2023-06-14T05:30:45;9.65;;;4.10;;
18501;SDS011;68437;52.236;5.710;2023-06-14T05:33:12;6.57;;;3.88;;
18501;SDS011;68437;52.236;5.710;2023-06-14T05:35:39;6.75;;;4.45;;
18501;SDS011;68437;52.236;5.710;2023-06-14T05:38:06;8.45;;;4.07;;
18501;SDS011;68437;52.236;5.710;2023-06-14T05:40:32;11.93;;;4.43;;
18501;SDS011;68437;52.236;5.710;2023-06-14T05:43:01;14.05;;;4.28;;
18501;SDS011;68437;52.236;5.710;2023-06-14T05:45:28;510.58;;;16.75;;
18501;SDS011;68437;52.236;5.710;2023-06-14T05:47:54;16.92;;;4.40;;
18501;SDS011;68437;52.236;5.710;2023-06-14T05:50:21;7.75;;;4.18;;
18501;SDS011;68437;52.236;5.710;2023-06-14T05:52:48;10.02;;;4.28;;
18501;SDS011;68437;52.236;5.710;2023-06-14T05:55:15;10.15;;;4.32;;
18501;SDS011;68437;52.236;5.710;2023-06-14T05:57:42;10.07;;;4.20;;
18501;SDS011;68437;52.236;5.710;2023-06-14T06:00:11;11.65;;;4.40;;
18501;SDS011;68437;52.236;5.710;2023-06-14T06:02:40;8.43;;;4.18;;
18501;SDS011;68437;52.236;5.710;2023-06-14T06:05:08;8.07;;;3.83;;
18501;SDS011;68437;52.236;5.710;2023-06-14T06:07:35;12.90;;;4.30;;
18501;SDS011;68437;52.236;5.710;2023-06-14T06:10:02;11.85;;;3.88;;
18501;SDS011;68437;52.236;5.710;2023-06-14T06:12:31;10.82;;;4.10;;
18501;SDS011;68437;52.236;5.710;2023-06-14T06:14:57;10.85;;;3.80;;
18501;SDS011;68437;52.236;5.710;2023-06-14T06:17:26;6.85;;;3.92;;
18501;SDS011;68437;52.236;5.710;2023-06-14T06:19:53;10.05;;;3.95;;
18501;SDS011;68437;52.236;5.710;2023-06-14T06:22:23;7.95;;;3.92;;
18501;SDS011;68437;52.236;5.710;2023-06-14T06:24:51;9.38;;;4.40;;
18501;SDS011;68437;52.236;5.710;2023-06-14T06:27:18;8.93;;;3.88;;
18501;SDS011;68437;52.236;5.710;2023-06-14T06:29:45;8.23;;;4.07;;
18501;SDS011;68437;52.236;5.710;2023-06-14T06:32:13;8.00;;;3.58;;
18501;SDS011;68437;52.236;5.710;2023-06-14T06:34:41;7.07;;;4.00;;
18501;SDS011;68437;52.236;5.710;2023-06-14T06:37:08;8.82;;;4.05;;
18501;SDS011;68437;52.236;5.710;2023-06-14T06:39:35;8.38;;;3.80;;
18501;SDS011;68437;52.236;5.710;2023-06-14T06:42:02;11.15;;;4.00;;
18501;SDS011;68437;52.236;5.710;2023-06-14T06:44:30;6.90;;;3.88;;
18501;SDS011;68437;52.236;5.710;2023-06-14T06:46:57;10.07;;;3.78;;
18501;SDS011;68437;52.236;5.710;2023-06-14T06:49:24;7.75;;;3.78;;
18501;SDS011;68437;52.236;5.710;2023-06-14T06:52:01;8.63;;;3.92;;
18501;SDS011;68437;52.236;5.710;2023-06-14T06:54:30;6.60;;;3.80;;
18501;SDS011;68437;52.236;5.710;2023-06-14T06:56:57;9.50;;;3.63;;
18501;SDS011;68437;52.236;5.710;2023-06-14T06:59:24;8.77;;;3.58;;
18501;SDS011;68437;52.236;5.710;2023-06-14T07:01:51;6.75;;;3.92;;
18501;SDS011;68437;52.236;5.710;2023-06-14T07:04:18;10.52;;;3.40;;
18501;SDS011;68437;52.236;5.710;2023-06-14T07:06:45;12.20;;;3.40;;
18501;SDS011;68437;52.236;5.710;2023-06-14T07:09:14;6.75;;;3.50;;
18501;SDS011;68437;52.236;5.710;2023-06-14T07:11:42;8.75;;;3.67;;
18501;SDS011;68437;52.236;5.710;2023-06-14T07:14:11;6.53;;;3.05;;
18501;SDS011;68437;52.236;5.710;2023-06-14T07:16:38;7.25;;;3.10;;
18501;SDS011;68437;52.236;5.710;2023-06-14T07:19:06;8.10;;;2.88;;
18501;SDS011;68437;52.236;5.710;2023-06-14T07:21:34;5.50;;;2.83;;
18501;SDS011;68437;52.236;5.710;2023-06-14T07:24:02;7.18;;;2.55;;
18501;SDS011;68437;52.236;5.710;2023-06-14T07:26:31;4.88;;;2.55;;
18501;SDS011;68437;52.236;5.710;2023-06-14T07:28:58;4.68;;;2.63;;
18501;SDS011;68437;52.236;5.710;2023-06-14T07:31:25;5.20;;;2.40;;
18501;SDS011;68437;52.236;5.710;2023-06-14T07:33:52;3.92;;;2.40;;
18501;SDS011;68437;52.236;5.710;2023-06-14T07:36:19;5.85;;;2.60;;
18501;SDS011;68437;52.236;5.710;2023-06-14T07:38:46;4.10;;;2.50;;
18501;SDS011;68437;52.236;5.710;2023-06-14T07:41:12;6.03;;;2.60;;
18501;SDS011;68437;52.236;5.710;2023-06-14T07:43:41;6.47;;;2.50;;
18501;SDS011;68437;52.236;5.710;2023-06-14T07:46:07;6.25;;;2.67;;
18501;SDS011;68437;52.236;5.710;2023-06-14T07:48:37;4.13;;;2.58;;
18501;SDS011;68437;52.236;5.710;2023-06-14T07:51:10;6.82;;;2.42;;
18501;SDS011;68437;52.236;5.710;2023-06-14T07:53:37;5.47;;;2.50;;
18501;SDS011;68437;52.236;5.710;2023-06-14T07:56:03;5.53;;;2.55;;
18501;SDS011;68437;52.236;5.710;2023-06-14T07:58:30;3.78;;;2.17;;
18501;SDS011;68437;52.236;5.710;2023-06-14T08:00:58;5.88;;;2.80;;
18501;SDS011;68437;52.236;5.710;2023-06-14T08:03:28;4.55;;;2.35;;
18501;SDS011;68437;52.236;5.710;2023-06-14T08:05:57;4.10;;;2.38;;
18501;SDS011;68437;52.236;5.710;2023-06-14T08:08:25;7.22;;;2.28;;
18501;SDS011;68437;52.236;5.710;2023-06-14T08:10:55;4.13;;;2.30;;
18501;SDS011;68437;52.236;5.710;2023-06-14T08:13:22;3.85;;;2.40;;
18501;SDS011;68437;52.236;5.710;2023-06-14T08:15:49;5.07;;;2.10;;
18501;SDS011;68437;52.236;5.710;2023-06-14T08:18:17;4.78;;;2.33;;
18501;SDS011;68437;52.236;5.710;2023-06-14T08:20:44;3.20;;;2.00;;
18501;SDS011;68437;52.236;5.710;2023-06-14T08:23:11;4.15;;;2.10;;
18501;SDS011;68437;52.236;5.710;2023-06-14T08:25:38;5.55;;;2.20;;
18501;SDS011;68437;52.236;5.710;2023-06-14T08:28:07;4.75;;;2.38;;
18501;SDS011;68437;52.236;5.710;2023-06-14T08:30:34;4.57;;;2.40;;
18501;SDS011;68437;52.236;5.710;2023-06-14T08:33:01;5.50;;;2.35;;
18501;SDS011;68437;52.236;5.710;2023-06-14T08:35:29;4.93;;;2.40;;
18501;SDS011;68437;52.236;5.710;2023-06-14T08:37:55;4.03;;;2.28;;
18501;SDS011;68437;52.236;5.710;2023-06-14T08:40:23;5.95;;;2.50;;
18501;SDS011;68437;52.236;5.710;2023-06-14T08:42:53;3.47;;;2.33;;
18501;SDS011;68437;52.236;5.710;2023-06-14T08:45:21;3.65;;;2.25;;
18501;SDS011;68437;52.236;5.710;2023-06-14T08:47:49;3.85;;;2.10;;
18501;SDS011;68437;52.236;5.710;2023-06-14T08:50:18;2.97;;;2.30;;
18501;SDS011;68437;52.236;5.710;2023-06-14T08:52:49;4.63;;;2.30;;
18501;SDS011;68437;52.236;5.710;2023-06-14T08:55:20;3.95;;;2.42;;
18501;SDS011;68437;52.236;5.710;2023-06-14T08:57:51;4.78;;;2.42;;
18501;SDS011;68437;52.236;5.710;2023-06-14T09:00:19;4.82;;;2.60;;
18501;SDS011;68437;52.236;5.710;2023-06-14T09:02:47;5.38;;;2.33;;
18501;SDS011;68437;52.236;5.710;2023-06-14T09:05:15;8.43;;;2.35;;
18501;SDS011;68437;52.236;5.710;2023-06-14T09:07:43;5.95;;;2.08;;
18501;SDS011;68437;52.236;5.710;2023-06-14T09:10:12;8.75;;;2.22;;
18501;SDS011;68437;52.236;5.710;2023-06-14T09:12:41;5.88;;;2.00;;
18501;SDS011;68437;52.236;5.710;2023-06-14T09:15:08;8.20;;;2.55;;
18501;SDS011;68437;52.236;5.710;2023-06-14T09:17:35;6.20;;;2.40;;
18501;SDS011;68437;52.236;5.710;2023-06-14T09:20:02;5.68;;;2.25;;
18501;SDS011;68437;52.236;5.710;2023-06-14T09:22:34;3.72;;;2.30;;
18501;SDS011;68437;52.236;5.710;2023-06-14T09:25:01;5.10;;;2.25;;
18501;SDS011;68437;52.236;5.710;2023-06-14T09:27:30;5.18;;;2.10;;
18501;SDS011;68437;52.236;5.710;2023-06-14T09:29:57;6.18;;;2.28;;
18501;SDS011;68437;52.236;5.710;2023-06-14T09:32:24;5.05;;;2.38;;
18501;SDS011;68437;52.236;5.710;2023-06-14T09:34:51;4.15;;;2.00;;
18501;SDS011;68437;52.236;5.710;2023-06-14T09:37:29;8.00;;;2.15;;
18501;SDS011;68437;52.236;5.710;2023-06-14T09:39:57;8.50;;;2.42;;
18501;SDS011;68437;52.236;5.710;2023-06-14T09:42:24;8.30;;;2.30;;
18501;SDS011;68437;52.236;5.710;2023-06-14T09:44:54;4.10;;;2.03;;
18501;SDS011;68437;52.236;5.710;2023-06-14T09:47:22;7.15;;;2.10;;
18501;SDS011;68437;52.236;5.710;2023-06-14T09:49:50;4.55;;;1.98;;
18501;SDS011;68437;52.236;5.710;2023-06-14T09:52:20;10.35;;;2.10;;
18501;SDS011;68437;52.236;5.710;2023-06-14T09:54:47;3.63;;;2.30;;
18501;SDS011;68437;52.236;5.710;2023-06-14T09:57:15;5.68;;;1.88;;
18501;SDS011;68437;52.236;5.710;2023-06-14T09:59:46;9.32;;;1.92;;
18501;SDS011;68437;52.236;5.710;2023-06-14T10:02:18;4.25;;;2.13;;
18501;SDS011;68437;52.236;5.710;2023-06-14T10:04:52;6.13;;;2.10;;
18501;SDS011;68437;52.236;5.710;2023-06-14T10:07:26;3.55;;;1.85;;
18501;SDS011;68437;52.236;5.710;2023-06-14T10:09:59;6.10;;;2.00;;
18501;SDS011;68437;52.236;5.710;2023-06-14T10:12:26;11.10;;;2.08;;
18501;SDS011;68437;52.236;5.710;2023-06-14T10:14:56;3.15;;;1.95;;
18501;SDS011;68437;52.236;5.710;2023-06-14T10:17:26;3.35;;;2.05;;
18501;SDS011;68437;52.236;5.710;2023-06-14T10:20:03;2.72;;;1.90;;
18501;SDS011;68437;52.236;5.710;2023-06-14T10:22:42;4.60;;;1.92;;
18501;SDS011;68437;52.236;5.710;2023-06-14T10:25:13;5.53;;;2.10;;
18501;SDS011;68437;52.236;5.710;2023-06-14T10:27:52;7.15;;;1.75;;
18501;SDS011;68437;52.236;5.710;2023-06-14T10:30:24;12.00;;;1.98;;
18501;SDS011;68437;52.236;5.710;2023-06-14T10:33:05;6.60;;;2.03;;
18501;SDS011;68437;52.236;5.710;2023-06-14T10:35:34;3.58;;;1.92;;
18501;SDS011;68437;52.236;5.710;2023-06-14T10:38:07;3.20;;;1.65;;
18501;SDS011;68437;52.236;5.710;2023-06-14T10:40:35;4.75;;;1.80;;
18501;SDS011;68437;52.236;5.710;2023-06-14T10:43:21;4.35;;;2.00;;
18501;SDS011;68437;52.236;5.710;2023-06-14T10:48:41;4.63;;;1.95;;
18501;SDS011;68437;52.236;5.710;2023-06-14T10:51:14;4.30;;;2.00;;
18501;SDS011;68437;52.236;5.710;2023-06-14T10:53:45;4.40;;;2.15;;
18501;SDS011;68437;52.236;5.710;2023-06-14T10:56:28;4.00;;;2.05;;
18501;SDS011;68437;52.236;5.710;2023-06-14T10:58:58;2.65;;;1.77;;
18501;SDS011;68437;52.236;5.710;2023-06-14T11:01:31;8.45;;;1.98;;
18501;SDS011;68437;52.236;5.710;2023-06-14T11:04:07;6.72;;;2.25;;
18501;SDS011;68437;52.236;5.710;2023-06-14T11:06:45;3.35;;;1.92;;
18501;SDS011;68437;52.236;5.710;2023-06-14T11:09:34;3.92;;;2.10;;
18501;SDS011;68437;52.236;5.710;2023-06-14T11:12:13;4.13;;;1.90;;
18501;SDS011;68437;52.236;5.710;2023-06-14T11:14:41;5.80;;;1.95;;
18501;SDS011;68437;52.236;5.710;2023-06-14T11:17:11;4.07;;;1.83;;
18501;SDS011;68437;52.236;5.710;2023-06-14T11:19:40;5.47;;;2.30;;
18501;SDS011;68437;52.236;5.710;2023-06-14T11:22:07;6.78;;;1.92;;
18501;SDS011;68437;52.236;5.710;2023-06-14T11:24:34;3.75;;;2.08;;
18501;SDS011;68437;52.236;5.710;2023-06-14T11:27:01;5.20;;;2.20;;
18501;SDS011;68437;52.236;5.710;2023-06-14T11:29:28;3.08;;;2.13;;
18501;SDS011;68437;52.236;5.710;2023-06-14T11:31:55;3.45;;;2.10;;
18501;SDS011;68437;52.236;5.710;2023-06-14T11:34:22;2.20;;;1.73;;
18501;SDS011;68437;52.236;5.710;2023-06-14T11:36:51;4.43;;;1.88;;
18501;SDS011;68437;52.236;5.710;2023-06-14T11:39:24;3.90;;;1.80;;
18501;SDS011;68437;52.236;5.710;2023-06-14T11:41:52;3.17;;;2.17;;
18501;SDS011;68437;52.236;5.710;2023-06-14T11:44:20;6.78;;;2.03;;
18501;SDS011;68437;52.236;5.710;2023-06-14T11:46:47;7.50;;;2.38;;
18501;SDS011;68437;52.236;5.710;2023-06-14T11:49:15;3.08;;;2.10;;
18501;SDS011;68437;52.236;5.710;2023-06-14T11:51:42;4.05;;;2.55;;
18501;SDS011;68437;52.236;5.710;2023-06-14T11:54:11;4.28;;;2.10;;
18501;SDS011;68437;52.236;5.710;2023-06-14T11:56:38;3.75;;;2.00;;
18501;SDS011;68437;52.236;5.710;2023-06-14T11:59:05;8.38;;;1.92;;
18501;SDS011;68437;52.236;5.710;2023-06-14T12:01:35;3.67;;;2.10;;
18501;SDS011;68437;52.236;5.710;2023-06-14T12:04:03;6.57;;;2.13;;
18501;SDS011;68437;52.236;5.710;2023-06-14T12:06:35;4.10;;;2.10;;
18501;SDS011;68437;52.236;5.710;2023-06-14T12:09:04;4.65;;;1.83;;
18501;SDS011;68437;52.236;5.710;2023-06-14T12:11:38;9.07;;;2.30;;
18501;SDS011;68437;52.236;5.710;2023-06-14T12:14:05;9.77;;;2.20;;
18501;SDS011;68437;52.236;5.710;2023-06-14T12:16:35;3.83;;;1.63;;
18501;SDS011;68437;52.236;5.710;2023-06-14T12:19:11;8.35;;;2.10;;
18501;SDS011;68437;52.236;5.710;2023-06-14T12:21:40;5.38;;;1.67;;
18501;SDS011;68437;52.236;5.710;2023-06-14T12:24:07;4.65;;;1.88;;
18501;SDS011;68437;52.236;5.710;2023-06-14T12:26:38;3.97;;;2.30;;
18501;SDS011;68437;52.236;5.710;2023-06-14T12:29:06;6.55;;;1.85;;
18501;SDS011;68437;52.236;5.710;2023-06-14T12:31:33;5.65;;;1.98;;
18501;SDS011;68437;52.236;5.710;2023-06-14T12:34:02;6.85;;;1.73;;
18501;SDS011;68437;52.236;5.710;2023-06-14T12:36:29;4.07;;;1.95;;
18501;SDS011;68437;52.236;5.710;2023-06-14T12:38:57;5.57;;;1.80;;
18501;SDS011;68437;52.236;5.710;2023-06-14T12:41:24;2.97;;;1.70;;
18501;SDS011;68437;52.236;5.710;2023-06-14T12:43:53;9.75;;;1.83;;
18501;SDS011;68437;52.236;5.710;2023-06-14T12:46:19;4.68;;;1.85;;
18501;SDS011;68437;52.236;5.710;2023-06-14T12:48:47;4.43;;;1.95;;
18501;SDS011;68437;52.236;5.710;2023-06-14T12:51:13;4.22;;;1.75;;
18501;SDS011;68437;52.236;5.710;2023-06-14T12:53:40;6.82;;;1.80;;
18501;SDS011;68437;52.236;5.710;2023-06-14T12:56:07;3.63;;;1.90;;
18501;SDS011;68437;52.236;5.710;2023-06-14T12:58:34;7.72;;;2.00;;
18501;SDS011;68437;52.236;5.710;2023-06-14T13:01:02;2.67;;;1.90;;
18501;SDS011;68437;52.236;5.710;2023-06-14T13:03:29;2.53;;;2.10;;
18501;SDS011;68437;52.236;5.710;2023-06-14T13:05:56;4.60;;;2.05;;
18501;SDS011;68437;52.236;5.710;2023-06-14T13:08:22;5.68;;;2.20;;
18501;SDS011;68437;52.236;5.710;2023-06-14T13:10:51;4.00;;;1.90;;
18501;SDS011;68437;52.236;5.710;2023-06-14T13:13:18;2.13;;;1.90;;
18501;SDS011;68437;52.236;5.710;2023-06-14T13:15:45;4.57;;;1.90;;
18501;SDS011;68437;52.236;5.710;2023-06-14T13:18:13;5.93;;;2.08;;
18501;SDS011;68437;52.236;5.710;2023-06-14T13:20:40;4.50;;;1.85;;
18501;SDS011;68437;52.236;5.710;2023-06-14T13:23:07;2.90;;;1.92;;
18501;SDS011;68437;52.236;5.710;2023-06-14T13:25:34;3.17;;;1.95;;
18501;SDS011;68437;52.236;5.710;2023-06-14T13:28:01;2.25;;;1.55;;
18501;SDS011;68437;52.236;5.710;2023-06-14T13:30:30;4.75;;;2.10;;
18501;SDS011;68437;52.236;5.710;2023-06-14T13:32:57;3.72;;;1.67;;
18501;SDS011;68437;52.236;5.710;2023-06-14T13:35:25;4.43;;;2.10;;
18501;SDS011;68437;52.236;5.710;2023-06-14T13:37:52;5.22;;;1.98;;
18501;SDS011;68437;52.236;5.710;2023-06-14T13:40:18;5.22;;;2.00;;
18501;SDS011;68437;52.236;5.710;2023-06-14T13:42:45;3.63;;;2.00;;
18501;SDS011;68437;52.236;5.710;2023-06-14T13:45:13;3.13;;;1.92;;
18501;SDS011;68437;52.236;5.710;2023-06-14T13:47:39;2.40;;;2.00;;
18501;SDS011;68437;52.236;5.710;2023-06-14T13:50:07;4.97;;;2.10;;
18501;SDS011;68437;52.236;5.710;2023-06-14T13:52:35;7.18;;;2.15;;
18501;SDS011;68437;52.236;5.710;2023-06-14T13:55:03;3.92;;;2.30;;
18501;SDS011;68437;52.236;5.710;2023-06-14T13:57:30;4.38;;;2.00;;
18501;SDS011;68437;52.236;5.710;2023-06-14T13:59:57;6.57;;;2.17;;
18501;SDS011;68437;52.236;5.710;2023-06-14T14:02:26;4.47;;;2.20;;
18501;SDS011;68437;52.236;5.710;2023-06-14T14:04:55;5.07;;;2.10;;
18501;SDS011;68437;52.236;5.710;2023-06-14T14:07:22;2.90;;;2.30;;
18501;SDS011;68437;52.236;5.710;2023-06-14T14:09:50;5.07;;;2.30;;
18501;SDS011;68437;52.236;5.710;2023-06-14T14:12:18;4.55;;;1.90;;
18501;SDS011;68437;52.236;5.710;2023-06-14T14:14:45;5.22;;;2.25;;
18501;SDS011;68437;52.236;5.710;2023-06-14T14:17:12;3.38;;;1.95;;
18501;SDS011;68437;52.236;5.710;2023-06-14T14:19:39;3.58;;;2.00;;
18501;SDS011;68437;52.236;5.710;2023-06-14T14:22:06;3.17;;;1.80;;
18501;SDS011;68437;52.236;5.710;2023-06-14T14:24:32;2.85;;;2.03;;
18501;SDS011;68437;52.236;5.710;2023-06-14T14:27:03;6.00;;;2.13;;
18501;SDS011;68437;52.236;5.710;2023-06-14T14:29:31;5.75;;;1.80;;
18501;SDS011;68437;52.236;5.710;2023-06-14T14:31:58;3.08;;;1.60;;
18501;SDS011;68437;52.236;5.710;2023-06-14T14:34:25;2.80;;;1.70;;
18501;SDS011;68437;52.236;5.710;2023-06-14T14:36:52;8.20;;;1.92;;
18501;SDS011;68437;52.236;5.710;2023-06-14T14:39:19;3.75;;;1.70;;
18501;SDS011;68437;52.236;5.710;2023-06-14T14:41:46;4.15;;;1.77;;
18501;SDS011;68437;52.236;5.710;2023-06-14T14:44:14;6.07;;;1.70;;
18501;SDS011;68437;52.236;5.710;2023-06-14T14:46:42;8.15;;;1.90;;
18501;SDS011;68437;52.236;5.710;2023-06-14T14:49:09;4.43;;;1.80;;
18501;SDS011;68437;52.236;5.710;2023-06-14T14:51:36;4.15;;;1.70;;
18501;SDS011;68437;52.236;5.710;2023-06-14T14:54:03;2.80;;;1.80;;
18501;SDS011;68437;52.236;5.710;2023-06-14T14:56:30;3.33;;;1.67;;